Time;durP1;ratioP1;P1;durP2;ratioP2;P2;SDS_P1;SDS_P2;PMS_P1;PMS_P2;Temp;Humidity;BMP_temperature;BMP_pressure;BME280_temperature;BME280_humidity;BME280_pressure;Samples;Min_cycle;Max_cycle;Signal;HPM_P1;HPM_P2
2021/07/08 00:05:24;;;;;;;;;3.50;3.50;;;;;20.53;43.54;101174.81;5076844;28;45704;-80
2021/07/08 00:07:50;;;;;;;;;3.00;3.00;;;;;20.51;44.05;101171.47;5075786;28;46366;-81
2021/07/08 00:10:22;;;;;;;;;2.75;2.25;;;;;20.45;43.92;101177.47;5078797;28;45687;-81
2021/07/08 00:12:48;;;;;;;;;3.00;3.00;;;;;20.36;44.08;101166.91;5083212;28;45640;-80
2021/07/08 00:15:19;;;;;;;;;3.75;3.25;;;;;20.29;44.57;101171.19;5082903;28;45540;-79
2021/07/08 00:17:45;;;;;;;;;3.00;3.00;;;;;20.28;44.20;101178.31;5062282;28;46219;-82
2021/07/08 00:20:14;;;;;;;;;3.50;2.75;;;;;20.21;44.72;101161.31;5080980;28;45626;-80
2021/07/08 00:22:39;;;;;;;;;3.25;3.00;;;;;20.11;44.50;101155.28;5078454;28;45855;-80
2021/07/08 00:25:10;;;;;;;;;4.00;3.00;;;;;20.09;44.76;101159.91;5078891;28;46344;-83
2021/07/08 00:27:36;;;;;;;;;3.00;3.00;;;;;20.13;44.84;101171.09;5076326;28;45968;-83
2021/07/08 00:30:03;;;;;;;;;4.00;3.00;;;;;20.08;45.03;101175.03;5058307;28;45656;-83
2021/07/08 00:35:50;;;;;;;;;3.50;3.25;;;;;19.94;45.55;101169.44;5075388;28;46017;-84
2021/07/08 00:38:16;;;;;;;;;4.00;4.00;;;;;19.92;45.89;101177.56;5075958;28;46190;-82
2021/07/08 00:40:42;;;;;;;;;2.50;2.50;;;;;19.85;45.67;101167.72;5075289;28;45780;-83
2021/07/08 00:43:08;;;;;;;;;3.25;3.25;;;;;19.88;45.53;101170.91;5075034;28;45448;-84
2021/07/08 00:45:34;;;;;;;;;4.00;3.00;;;;;19.86;45.79;101180.88;5075172;28;45524;-82
2021/07/08 00:48:00;;;;;;;;;2.50;2.50;;;;;19.85;45.71;101178.38;5074590;28;45774;-84
2021/07/08 00:50:32;;;;;;;;;2.75;2.75;;;;;19.84;45.91;101174.03;5075092;28;45845;-83
2021/07/08 00:52:58;;;;;;;;;3.75;3.75;;;;;19.83;45.97;101175.84;5074659;28;45590;-84
2021/07/08 00:55:23;;;;;;;;;4.25;4.25;;;;;19.81;46.38;101171.69;5074559;28;47165;-83
2021/07/08 00:57:54;;;;;;;;;4.50;4.00;;;;;19.79;46.08;101171.00;5074439;28;46621;-83
2021/07/08 01:00:24;;;;;;;;;3.50;2.50;;;;;19.71;46.33;101166.44;5074600;28;45597;-83
2021/07/08 01:06:11;;;;;;;;;5.00;4.00;;;;;19.69;46.66;101163.97;5074015;28;46107;-80
2021/07/08 01:08:37;;;;;;;;;4.75;3.75;;;;;19.71;46.90;101174.44;5074804;28;45758;-81
2021/07/08 01:11:02;;;;;;;;;5.00;3.75;;;;;19.63;47.04;101159.25;5075029;28;45567;-81
2021/07/08 01:13:28;;;;;;;;;5.00;4.75;;;;;19.69;46.62;101168.44;5075081;28;45850;-80
2021/07/08 01:15:53;;;;;;;;;5.75;3.75;;;;;19.66;46.85;101168.75;5074794;28;45563;-82
2021/07/08 01:18:18;;;;;;;;;5.75;3.75;;;;;19.69;47.33;101169.28;5073003;28;46020;-83
2021/07/08 01:20:44;;;;;;;;;5.00;3.75;;;;;19.55;47.15;101161.00;5074928;28;45498;-84
2021/07/08 01:23:10;;;;;;;;;4.00;4.00;;;;;19.64;47.58;101178.72;5076692;28;45764;-85
2021/07/08 01:25:38;;;;;;;;;3.00;3.00;;;;;19.61;47.06;101166.53;5075796;28;47561;-83
2021/07/08 01:28:07;;;;;;;;;5.00;5.00;;;;;19.59;47.42;101181.00;5076339;28;46972;-80
2021/07/08 01:30:33;;;;;;;;;4.00;4.00;;;;;19.51;47.54;101160.47;5074990;28;45567;-81
2021/07/08 01:36:22;;;;;;;;;4.00;4.00;;;;;19.47;47.87;101179.56;5073755;28;46177;-83
2021/07/08 01:38:47;;;;;;;;;6.00;4.75;;;;;19.47;47.83;101177.72;5074656;28;46006;-85
2021/07/08 01:41:13;;;;;;;;;4.00;4.00;;;;;19.47;48.03;101185.72;5074354;28;45523;-83
2021/07/08 01:43:40;;;;;;;;;4.00;3.25;;;;;19.36;48.54;101169.94;5077475;28;45715;-82
2021/07/08 01:46:09;;;;;;;;;4.25;4.25;;;;;19.47;47.93;101198.16;5077880;28;45729;-84
2021/07/08 01:48:36;;;;;;;;;4.25;3.25;;;;;19.36;47.99;101187.72;5077947;28;46455;-81
2021/07/08 01:51:04;;;;;;;;;4.25;4.00;;;;;19.43;48.48;101197.59;5077999;28;45419;-83
2021/07/08 01:53:30;;;;;;;;;3.75;3.75;;;;;19.40;48.55;101202.38;5077977;28;45771;-82
2021/07/08 01:55:57;;;;;;;;;4.00;4.00;;;;;19.35;48.76;101192.19;5077636;28;45755;-82
2021/07/08 01:58:25;;;;;;;;;4.75;4.00;;;;;19.38;49.08;101193.72;5078101;28;46176;-82
2021/07/08 02:00:52;;;;;;;;;3.75;3.00;;;;;19.26;48.58;101185.97;5078758;28;45674;-82
2021/07/08 02:06:39;;;;;;;;;3.50;3.25;;;;;19.34;48.93;101195.00;5079238;28;46178;-81
2021/07/08 02:09:06;;;;;;;;;4.50;4.50;;;;;19.31;48.62;101193.50;5080136;28;45606;-82
2021/07/08 02:11:32;;;;;;;;;6.50;6.25;;;;;19.36;49.11;101206.31;5080016;28;45805;-83
2021/07/08 02:13:57;;;;;;;;;4.50;4.50;;;;;19.38;48.83;101201.69;5062068;28;45586;-82
2021/07/08 02:16:23;;;;;;;;;4.25;4.25;;;;;19.14;49.28;101167.75;5082635;28;45624;-83
2021/07/08 02:18:50;;;;;;;;;4.75;4.50;;;;;19.39;48.73;101209.50;5081305;28;45485;-84
2021/07/08 02:21:16;;;;;;;;;4.50;4.50;;;;;19.39;49.07;101204.19;5083589;28;45564;-83
2021/07/08 02:23:42;;;;;;;;;4.50;4.50;;;;;19.40;48.83;101205.84;5084152;28;45635;-83
2021/07/08 02:26:08;;;;;;;;;4.00;4.00;;;;;19.37;48.79;101195.53;5085449;28;46773;-84
2021/07/08 02:28:34;;;;;;;;;4.25;4.25;;;;;19.32;48.96;101183.69;5079537;28;47124;-84
2021/07/08 02:31:00;;;;;;;;;4.50;4.50;;;;;19.40;49.28;101197.88;5081920;28;45670;-83
2021/07/08 02:36:47;;;;;;;;;5.25;4.00;;;;;19.28;49.41;101193.78;5078268;28;46063;-83
2021/07/08 02:39:13;;;;;;;;;3.50;3.50;;;;;19.30;49.39;101194.47;5078926;28;46538;-84
2021/07/08 02:41:38;;;;;;;;;5.00;4.00;;;;;19.21;49.48;101184.75;5078458;28;45638;-83
2021/07/08 02:44:04;;;;;;;;;4.00;3.25;;;;;19.24;49.50;101195.91;5077598;28;45617;-84
2021/07/08 02:52:35;;;;;;;;;5.50;5.25;;;;;19.15;49.79;101182.69;5076783;28;45598;-82
2021/07/08 02:55:01;;;;;;;;;5.00;5.00;;;;;19.17;50.25;101199.31;5075581;28;45594;-82
2021/07/08 02:57:27;;;;;;;;;5.00;4.75;;;;;19.11;50.05;101181.34;5076625;28;46397;-83
2021/07/08 02:59:52;;;;;;;;;4.75;4.75;;;;;19.05;50.49;101180.09;5076796;28;45856;-83
2021/07/08 03:02:18;;;;;;;;;5.00;4.50;;;;;19.13;49.87;101193.47;5077476;28;45573;-83
2021/07/08 03:04:44;;;;;;;;;4.00;4.00;;;;;19.05;50.50;101189.91;5076786;28;45883;-83
2021/07/08 03:07:10;;;;;;;;;4.25;3.75;;;;;19.08;50.49;101198.41;5076869;28;45489;-82
2021/07/08 03:09:35;;;;;;;;;4.00;4.00;;;;;19.07;50.76;101203.84;5076524;28;46132;-80
2021/07/08 03:12:00;;;;;;;;;4.25;4.25;;;;;19.05;50.50;101190.75;5058249;28;45672;-83
2021/07/08 03:14:26;;;;;;;;;2.75;2.75;;;;;18.97;50.69;101187.97;5076887;28;45797;-83
2021/07/08 03:16:51;;;;;;;;;6.75;6.00;;;;;18.90;50.93;101183.38;5077124;28;45521;-84
2021/07/08 03:19:17;;;;;;;;;5.00;5.00;;;;;18.98;51.03;101205.59;5077045;28;46405;-82
2021/07/08 03:21:42;;;;;;;;;6.00;5.50;;;;;18.82;51.52;101192.13;5076843;28;45447;-83
2021/07/08 03:24:07;;;;;;;;;5.50;4.25;;;;;18.78;51.74;101194.25;5076882;28;45591;-83
2021/07/08 03:26:33;;;;;;;;;3.75;3.25;;;;;18.73;52.10;101195.66;5076126;28;46441;-84
2021/07/08 03:28:59;;;;;;;;;6.75;5.50;;;;;18.76;51.57;101205.97;5057747;28;47200;-82
2021/07/08 03:31:24;;;;;;;;;6.25;5.75;;;;;18.71;51.57;101211.72;5076606;28;45545;-83
2021/07/08 03:37:11;;;;;;;;;5.50;5.25;;;;;18.57;52.35;101211.38;5075909;28;45536;-83
2021/07/08 03:39:37;;;;;;;;;5.00;5.00;;;;;18.48;52.37;101207.75;5075691;28;45591;-83
2021/07/08 03:42:03;;;;;;;;;5.50;5.50;;;;;18.50;52.04;101215.56;5075808;28;45495;-82
2021/07/08 03:44:28;;;;;;;;;6.00;5.00;;;;;18.37;52.77;101203.44;5076048;28;45463;-80
2021/07/08 03:46:53;;;;;;;;;6.00;5.50;;;;;18.32;52.63;101203.03;5075690;28;46424;-82
2021/07/08 03:52:42;;;;;;;;;6.00;6.00;;;;;18.28;52.80;101214.94;5075507;28;45770;-80
2021/07/08 03:55:10;;;;;;;;;6.00;6.00;;;;;18.28;52.55;101222.06;5075933;28;45714;-82
2021/07/08 03:57:36;;;;;;;;;6.00;6.00;;;;;18.24;52.65;101215.38;5075739;28;46546;-82
2021/07/08 04:00:05;;;;;;;;;6.00;6.00;;;;;18.20;52.83;101222.75;5075273;28;45543;-83
2021/07/08 04:02:32;;;;;;;;;6.25;6.25;;;;;18.09;52.89;101206.16;5057368;28;45543;-83
2021/07/08 04:04:58;;;;;;;;;5.00;5.00;;;;;18.19;53.15;101231.69;5075384;28;45608;-83
2021/07/08 04:07:23;;;;;;;;;6.75;6.00;;;;;18.08;53.31;101210.66;5075611;28;46429;-81
2021/07/08 04:09:49;;;;;;;;;6.00;6.00;;;;;18.08;53.18;101223.06;5075622;28;46041;-84
2021/07/08 04:12:14;;;;;;;;;8.25;6.00;;;;;18.13;53.17;101234.94;5075456;28;45457;-81
2021/07/08 04:14:40;;;;;;;;;6.00;5.25;;;;;18.22;53.36;101251.78;5057535;28;45833;-83
2021/07/08 04:17:06;;;;;;;;;4.75;4.25;;;;;18.04;53.05;101230.47;5075627;28;45603;-83
2021/07/08 04:23:08;;;;;;;;;7.75;6.00;;;;;18.24;52.79;101253.34;5067122;28;45845;-84
2021/07/08 04:25:34;;;;;;;;;7.00;7.00;;;;;18.26;53.04;101254.03;5077248;28;45765;-83
2021/07/08 04:28:00;;;;;;;;;5.00;4.75;;;;;18.25;53.15;101252.34;5076198;28;46470;-83
2021/07/08 04:30:26;;;;;;;;;5.00;4.50;;;;;18.27;53.43;101245.09;5076419;28;45603;-83
2021/07/08 04:32:52;;;;;;;;;5.75;5.75;;;;;18.27;53.48;101255.69;5076869;28;45655;-83
2021/07/08 04:35:21;;;;;;;;;4.50;4.50;;;;;18.15;53.43;101234.78;5076412;28;45484;-82
2021/07/08 04:37:47;;;;;;;;;8.00;6.75;;;;;17.97;53.77;101201.06;5075680;28;47221;-84
2021/07/08 04:40:16;;;;;;;;;6.50;5.50;;;;;18.21;53.95;101239.50;5078498;28;45731;-82
2021/07/08 04:42:42;;;;;;;;;6.25;6.00;;;;;18.19;53.56;101247.59;5087546;28;45678;-82
2021/07/08 04:45:09;;;;;;;;;5.00;5.00;;;;;18.01;54.09;101220.16;5068279;28;45548;-83
2021/07/08 04:47:39;;;;;;;;;8.00;7.00;;;;;17.91;53.67;101200.78;5083464;28;45570;-82
2021/07/08 04:50:08;;;;;;;;;5.00;5.00;;;;;18.10;54.10;101229.91;5081484;28;46402;-81
2021/07/08 04:52:34;;;;;;;;;4.00;4.00;;;;;18.21;53.77;101250.13;5081517;28;45471;-82
2021/07/08 04:54:59;;;;;;;;;5.75;4.75;;;;;18.16;53.87;101245.25;5079110;28;45496;-82
2021/07/08 04:57:25;;;;;;;;;5.00;5.00;;;;;18.23;54.15;101262.28;5075332;28;45827;-83
2021/07/08 04:59:50;;;;;;;;;6.25;6.25;;;;;18.20;53.92;101251.09;5075037;28;46124;-82
2021/07/08 05:02:15;;;;;;;;;6.00;6.00;;;;;18.24;53.91;101263.97;5074495;28;45842;-83
2021/07/08 05:08:05;;;;;;;;;6.00;6.00;;;;;18.16;54.76;101250.56;5075663;28;45577;-82
2021/07/08 05:10:31;;;;;;;;;7.00;7.00;;;;;18.15;54.53;101254.19;5074883;28;46104;-83
2021/07/08 05:12:57;;;;;;;;;5.25;5.00;;;;;18.19;54.59;101260.88;5074889;28;45655;-80
2021/07/08 05:15:22;;;;;;;;;7.50;6.00;;;;;18.14;54.61;101257.81;5075210;28;45656;-83
2021/07/08 05:17:49;;;;;;;;;6.50;6.00;;;;;18.21;54.46;101272.19;5073855;28;46500;-82
2021/07/08 05:20:17;;;;;;;;;6.50;6.00;;;;;18.25;54.93;101272.72;5074867;28;46265;-82
2021/07/08 05:22:46;;;;;;;;;7.50;5.75;;;;;18.30;54.63;101271.31;5074510;28;45612;-83
2021/07/08 05:25:14;;;;;;;;;8.50;8.50;;;;;18.33;55.00;101265.75;5074762;28;45571;-79
2021/07/08 05:27:41;;;;;;;;;6.00;5.50;;;;;18.35;54.75;101274.38;5074735;28;46764;-81
2021/07/08 05:30:08;;;;;;;;;8.75;8.00;;;;;18.40;54.78;101272.16;5075081;28;45497;-82
2021/07/08 05:32:34;;;;;;;;;9.50;8.25;;;;;18.44;55.08;101275.34;5074732;28;45730;-80
2021/07/08 05:38:21;;;;;;;;;9.00;7.75;;;;;18.45;54.47;101272.56;5074257;28;45611;-82
2021/07/08 05:40:47;;;;;;;;;6.25;6.25;;;;;18.58;55.16;101297.97;5075556;28;46282;-81
2021/07/08 05:43:13;;;;;;;;;8.00;7.00;;;;;18.62;54.75;101299.38;5075196;28;45626;-83
2021/07/08 05:45:38;;;;;;;;;6.50;6.50;;;;;18.47;55.20;101269.75;5075378;28;45639;-81
2021/07/08 05:48:04;;;;;;;;;7.50;6.75;;;;;18.60;55.10;101291.56;5075178;28;46358;-80
2021/07/08 05:50:29;;;;;;;;;8.50;7.25;;;;;18.58;54.95;101280.22;5074491;28;45542;-81
2021/07/08 05:52:55;;;;;;;;;6.00;5.25;;;;;18.73;55.44;101296.56;5074785;28;45683;-83
2021/07/08 05:55:20;;;;;;;;;8.00;7.00;;;;;18.75;55.00;101298.06;5074734;28;45513;-77
2021/07/08 05:57:48;;;;;;;;;7.25;6.50;;;;;18.82;54.95;101293.84;5074579;28;46320;-81
2021/07/08 06:00:20;;;;;;;;;6.50;6.50;;;;;18.91;54.71;101299.25;5074537;28;45588;-79
2021/07/08 06:02:46;;;;;;;;;7.50;6.00;;;;;18.97;55.19;101291.56;5074534;28;45742;-82
2021/07/08 06:08:33;;;;;;;;;7.50;7.00;;;;;19.15;55.05;101297.78;5074765;28;46102;-80
2021/07/08 06:10:58;;;;;;;;;7.00;7.00;;;;;19.20;55.13;101306.13;5074483;28;46136;-79
2021/07/08 06:13:24;;;;;;;;;6.50;5.50;;;;;19.20;55.04;101294.66;5075020;28;45439;-78
2021/07/08 06:15:49;;;;;;;;;8.00;6.25;;;;;19.30;54.75;101308.72;5075633;28;45669;-77
2021/07/08 06:18:14;;;;;;;;;6.50;6.50;;;;;19.30;54.95;101300.75;5073448;28;46580;-81
2021/07/08 06:24:02;;;;;;;;;5.00;5.00;;;;;19.43;55.17;101317.19;5063185;28;45802;-78
2021/07/08 06:26:27;;;;;;;;;6.00;5.75;;;;;19.47;55.20;101325.75;5074376;28;45645;-76
2021/07/08 06:28:53;;;;;;;;;7.50;6.50;;;;;19.49;54.91;101327.25;5075708;28;46628;-78
2021/07/08 06:31:18;;;;;;;;;8.50;6.25;;;;;19.53;54.96;101319.84;5077104;28;45876;-80
2021/07/08 06:33:44;;;;;;;;;6.75;5.50;;;;;19.50;54.68;101326.25;5077767;28;45658;-79
2021/07/08 06:36:10;;;;;;;;;8.25;5.75;;;;;19.60;55.11;101331.50;5077539;28;45801;-81
2021/07/08 06:38:35;;;;;;;;;4.00;4.00;;;;;19.63;55.05;101336.56;5079424;28;46681;-84
2021/07/08 06:41:01;;;;;;;;;5.25;4.75;;;;;19.64;54.95;101328.44;5078121;28;46048;-80
2021/07/08 06:43:26;;;;;;;;;7.00;6.00;;;;;19.62;54.75;101333.06;5078160;28;46207;-80
2021/07/08 06:45:51;;;;;;;;;7.75;7.75;;;;;19.66;54.75;101346.88;5076679;28;45646;-79
2021/07/08 06:48:17;;;;;;;;;7.25;7.00;;;;;19.63;54.96;101337.38;5076063;28;47567;-80
2021/07/08 06:54:06;;;;;;;;;8.00;7.75;;;;;19.57;55.37;101340.66;5076503;28;45722;-80
2021/07/08 06:56:31;;;;;;;;;5.00;4.75;;;;;19.56;54.94;101343.44;5076662;28;45600;-80
2021/07/08 06:58:57;;;;;;;;;6.25;6.00;;;;;19.48;55.22;101344.19;5075475;28;46641;-80
2021/07/08 07:01:23;;;;;;;;;6.50;6.50;;;;;19.48;55.43;101346.03;5058740;28;46087;-81
2021/07/08 07:03:48;;;;;;;;;9.00;8.00;;;;;19.52;55.43;101353.53;5078975;28;45993;-80
2021/07/08 07:09:35;;;;;;;;;7.00;7.00;;;;;19.47;55.77;101369.09;5082211;28;45947;-81
2021/07/08 07:12:00;;;;;;;;;8.00;7.00;;;;;19.31;55.71;101341.47;5082970;28;46488;-80
2021/07/08 07:14:26;;;;;;;;;8.50;7.75;;;;;19.38;56.06;101367.28;5082135;28;45730;-79
2021/07/08 07:16:51;;;;;;;;;6.00;5.75;;;;;19.34;55.54;101371.22;5081111;28;45675;-83
2021/07/08 07:19:16;;;;;;;;;5.00;4.75;;;;;19.23;55.75;101353.66;5082146;28;45700;-82
2021/07/08 07:21:42;;;;;;;;;8.00;7.00;;;;;19.03;55.89;101333.47;5081223;28;45548;-79
2021/07/08 07:24:08;;;;;;;;;6.75;6.00;;;;;19.13;55.91;101357.31;5077572;28;45650;-79
2021/07/08 07:26:34;;;;;;;;;7.00;7.00;;;;;19.17;56.40;101364.00;5076475;28;45726;-79
2021/07/08 07:28:59;;;;;;;;;8.25;6.50;;;;;19.17;56.10;101364.84;5076860;28;46515;-78
2021/07/08 07:31:24;;;;;;;;;8.25;7.75;;;;;19.12;56.29;101355.66;5058111;28;46681;-80
2021/07/08 07:33:50;;;;;;;;;7.50;6.75;;;;;19.12;56.44;101363.63;5058034;28;45742;-78
2021/07/08 07:39:37;;;;;;;;;9.50;8.25;;;;;19.08;56.90;101368.41;5075642;28;45714;-75
2021/07/08 07:42:03;;;;;;;;;10.00;10.00;;;;;19.05;57.05;101376.66;5075391;28;46230;-80
2021/07/08 07:44:29;;;;;;;;;12.50;10.50;;;;;19.03;57.46;101375.13;5076247;28;45552;-81
2021/07/08 07:46:55;;;;;;;;;8.75;8.00;;;;;18.88;57.08;101364.13;5076305;28;45700;-80
2021/07/08 07:49:22;;;;;;;;;10.00;9.50;;;;;18.98;57.12;101380.88;5076583;28;45831;-80
2021/07/08 07:51:48;;;;;;;;;9.75;8.75;;;;;18.98;57.33;101377.38;5076624;28;46475;-79
2021/07/08 07:54:13;;;;;;;;;11.75;10.75;;;;;18.98;57.11;101386.19;5075316;28;45819;-81
2021/07/08 07:56:39;;;;;;;;;10.00;9.25;;;;;18.86;57.35;101368.75;5057071;28;45552;-78
2021/07/08 07:59:08;;;;;;;;;5.00;5.00;;;;;18.98;57.89;101383.53;5075362;28;47644;-80
2021/07/08 08:01:34;;;;;;;;;9.50;9.25;;;;;18.87;57.41;101365.13;5075445;28;45597;-81
2021/07/08 08:04:00;;;;;;;;;9.00;7.00;;;;;19.05;57.53;101391.78;5073612;28;45567;-78
2021/07/08 08:09:47;;;;;;;;;7.75;7.00;;;;;19.08;57.42;101389.66;5072937;28;45624;-81
2021/07/08 08:12:12;;;;;;;;;6.25;6.25;;;;;19.07;57.65;101381.81;5072974;28;45696;-77
2021/07/08 08:14:38;;;;;;;;;6.25;6.25;;;;;18.99;57.69;101356.00;5071419;28;45751;-77
2021/07/08 08:17:03;;;;;;;;;8.00;8.00;;;;;19.21;57.03;101384.03;5074275;28;45537;-79
2021/07/08 08:19:29;;;;;;;;;3.50;3.25;;;;;19.25;57.03;101372.94;5072690;28;46475;-79
2021/07/08 08:25:16;;;;;;;;;6.25;5.00;;;;;19.35;56.88;101388.84;5061378;28;45843;-82
2021/07/08 08:27:42;;;;;;;;;7.50;6.75;;;;;19.41;56.93;101380.28;5074998;28;45716;-81
2021/07/08 08:30:11;;;;;;;;;5.00;4.50;;;;;19.46;57.12;101385.19;5074868;28;45493;-79
2021/07/08 08:32:36;;;;;;;;;6.25;4.50;;;;;19.51;56.67;101378.44;5056242;28;46644;-81
2021/07/08 08:35:02;;;;;;;;;4.50;4.50;;;;;19.49;56.95;101360.97;5073343;28;45577;-79
2021/07/08 08:37:27;;;;;;;;;7.00;6.00;;;;;19.66;56.35;101368.16;5074818;28;45630;-82
2021/07/08 08:39:52;;;;;;;;;5.25;5.00;;;;;19.73;56.62;101382.53;5074693;28;46315;-81
2021/07/08 08:42:18;;;;;;;;;5.00;5.00;;;;;19.77;56.49;101369.75;5055888;28;46331;-80
2021/07/08 08:44:43;;;;;;;;;8.00;6.75;;;;;19.88;56.62;101369.53;5074620;28;45496;-79
2021/07/08 08:47:12;;;;;;;;;5.00;4.50;;;;;19.94;56.57;101371.59;5074309;28;45501;-78
2021/07/08 08:49:40;;;;;;;;;5.00;5.00;;;;;19.98;56.34;101357.84;5056355;28;48575;-77
2021/07/08 08:55:27;;;;;;;;;6.00;4.00;;;;;20.27;56.19;101380.75;5074104;28;45553;-77
2021/07/08 08:57:54;;;;;;;;;4.25;4.25;;;;;20.30;55.74;101367.94;5074344;28;45884;-77
2021/07/08 09:00:26;;;;;;;;;6.00;5.00;;;;;20.42;55.90;101371.25;5072438;28;47360;-77
2021/07/08 09:03:02;;;;;;;;;5.25;4.00;;;;;20.47;55.24;101368.97;5055515;28;47083;-77
2021/07/08 09:05:28;;;;;;;;;5.00;5.00;;;;;20.55;55.04;101376.19;5073732;28;45619;-77
2021/07/08 09:08:21;;;;;;;;;6.00;5.25;;;;;20.65;54.96;101380.44;5073817;28;45561;-75
2021/07/08 09:11:04;;;;;;;;;4.50;3.50;;;;;20.64;54.21;101373.41;5074122;28;45545;-76
2021/07/08 09:13:41;;;;;;;;;6.00;4.00;;;;;20.75;54.17;101373.16;5073941;28;45859;-75
2021/07/08 09:16:14;;;;;;;;;4.25;3.25;;;;;20.81;53.97;101369.03;5074018;28;45688;-78
2021/07/08 09:18:43;;;;;;;;;9.00;8.00;;;;;20.90;54.17;101376.09;5074478;28;45735;-77
2021/07/08 09:21:21;;;;;;;;;4.25;3.00;;;;;20.93;53.64;101365.97;5072981;28;46715;-77
2021/07/08 09:24:13;;;;;;;;;6.00;6.00;;;;;21.09;53.44;101367.06;5073384;28;45493;-79
2021/07/08 09:26:45;;;;;;;;;3.25;3.25;;;;;21.18;53.58;101360.78;5073517;28;45671;-76
2021/07/08 09:29:19;;;;;;;;;2.50;2.00;;;;;21.30;52.96;101364.84;5074120;28;45813;-77
2021/07/08 09:31:55;;;;;;;;;3.00;2.50;;;;;21.39;52.54;101369.22;5073994;28;45571;-76
2021/07/08 09:34:22;;;;;;;;;4.00;3.00;;;;;21.48;52.57;101372.78;5073478;28;47281;-76
2021/07/08 09:37:02;;;;;;;;;3.00;3.00;;;;;21.48;52.25;101364.78;5075101;28;45753;-76
2021/07/08 09:39:36;;;;;;;;;5.25;5.00;;;;;21.47;52.03;101382.59;5078958;28;45735;-76
2021/07/08 09:42:02;;;;;;;;;4.00;4.00;;;;;21.52;51.99;101366.94;5078221;28;45694;-77
2021/07/08 09:44:28;;;;;;;;;5.00;5.00;;;;;21.52;51.92;101372.28;5078936;28;46384;-77
2021/07/08 09:46:55;;;;;;;;;6.00;5.00;;;;;21.53;52.01;101376.63;5077117;28;45719;-77
2021/07/08 09:49:22;;;;;;;;;4.25;4.25;;;;;21.34;52.08;101332.38;5077251;28;45831;-76
2021/07/08 09:51:48;;;;;;;;;6.00;5.00;;;;;21.55;51.88;101365.78;5073857;28;45603;-77
2021/07/08 09:54:20;;;;;;;;;4.25;4.25;;;;;21.56;52.12;101365.63;5073947;28;46070;-77
2021/07/08 09:56:49;;;;;;;;;6.00;4.00;;;;;21.41;51.45;101340.56;5074052;28;45604;-78
2021/07/08 09:59:17;;;;;;;;;5.00;4.75;;;;;21.52;51.51;101353.63;5073941;28;45517;-78
2021/07/08 10:01:44;;;;;;;;;4.00;3.25;;;;;21.42;51.50;101336.06;5073505;28;45583;-76
2021/07/08 10:04:11;;;;;;;;;3.50;3.25;;;;;21.56;51.40;101354.13;5075239;28;45504;-77
2021/07/08 10:06:37;;;;;;;;;3.00;2.00;;;;;21.62;51.25;101367.66;5076993;28;45726;-76
2021/07/08 10:09:05;;;;;;;;;3.00;3.00;;;;;21.44;50.81;101324.25;5077195;28;45565;-77
2021/07/08 10:11:31;;;;;;;;;3.25;3.25;;;;;21.69;50.87;101367.84;5076343;28;45643;-78
2021/07/08 10:14:02;;;;;;;;;4.25;4.25;;;;;21.63;50.68;101352.47;5076651;28;45643;-77
2021/07/08 10:16:30;;;;;;;;;3.50;3.50;;;;;21.77;50.64;101363.34;5076773;28;45690;-77
2021/07/08 10:19:00;;;;;;;;;4.00;3.00;;;;;21.86;50.30;101360.72;5077023;28;45632;-77
2021/07/08 10:21:29;;;;;;;;;5.00;5.00;;;;;21.91;50.51;101366.38;5076877;28;46359;-78
2021/07/08 10:23:56;;;;;;;;;4.00;3.00;;;;;21.93;49.86;101364.38;5076852;28;45897;-74
2021/07/08 10:26:22;;;;;;;;;3.00;3.00;;;;;21.85;50.11;101338.53;5076605;28;45582;-77
2021/07/08 10:28:48;;;;;;;;;4.00;3.25;;;;;22.03;49.67;101355.25;5076826;28;45687;-75
2021/07/08 10:31:23;;;;;;;;;5.00;4.75;;;;;22.11;49.79;101375.78;5076528;28;46640;-76
2021/07/08 10:34:08;;;;;;;;;3.00;3.00;;;;;22.13;48.88;101369.25;5076565;28;45619;-76
2021/07/08 10:36:35;;;;;;;;;4.00;4.00;;;;;22.07;48.63;101345.09;5076399;28;45600;-77
2021/07/08 10:39:04;;;;;;;;;4.00;4.00;;;;;22.13;48.21;101360.44;5076019;28;45733;-76
2021/07/08 10:41:30;;;;;;;;;4.25;4.25;;;;;22.15;48.66;101377.97;5076381;28;46478;-77
2021/07/08 10:43:55;;;;;;;;;5.00;5.00;;;;;22.16;48.87;101379.63;5076521;28;46015;-77
2021/07/08 10:46:34;;;;;;;;;5.25;4.25;;;;;22.16;48.35;101368.13;5076791;28;45600;-76
2021/07/08 10:49:10;;;;;;;;;5.50;5.00;;;;;22.16;48.41;101371.63;5074524;28;45577;-75
2021/07/08 10:51:38;;;;;;;;;5.50;5.50;;;;;22.13;48.75;101366.59;5074994;28;45529;-77
2021/07/08 10:54:27;;;;;;;;;4.25;4.25;;;;;22.17;48.86;101373.31;5075439;28;47025;-76
2021/07/08 10:56:54;;;;;;;;;5.25;5.00;;;;;22.12;48.61;101374.78;5076012;28;45682;-76
2021/07/08 10:59:20;;;;;;;;;5.75;5.25;;;;;22.11;48.78;101387.31;5076154;28;45683;-78
2021/07/08 11:01:48;;;;;;;;;3.50;3.50;;;;;22.11;49.08;101383.78;5076206;28;46821;-77
2021/07/08 11:04:15;;;;;;;;;5.75;5.00;;;;;22.10;48.60;101387.47;5058171;28;46027;-76
2021/07/08 11:06:43;;;;;;;;;5.00;5.00;;;;;22.06;48.87;101372.78;5076269;28;46003;-77
2021/07/08 11:09:11;;;;;;;;;5.00;5.00;;;;;22.08;48.75;101387.63;5076841;28;45637;-75
2021/07/08 11:11:41;;;;;;;;;6.00;5.00;;;;;22.08;49.26;101390.28;5076490;28;45666;-75
2021/07/08 11:14:06;;;;;;;;;4.25;4.00;;;;;22.12;48.97;101386.31;5076466;28;45899;-77
2021/07/08 11:16:42;;;;;;;;;5.50;5.00;;;;;22.16;49.22;101386.81;5076186;28;45667;-77
2021/07/08 11:19:12;;;;;;;;;6.00;4.00;;;;;22.21;48.96;101399.66;5077524;28;45655;-76
2021/07/08 11:26:09;;;;;;;;;4.00;4.00;;;;;22.26;48.63;101389.31;5067036;28;45764;-77
2021/07/08 11:28:35;;;;;;;;;3.75;3.75;;;;;22.25;48.58;101388.47;5077329;28;45680;-77
2021/07/08 11:31:04;;;;;;;;;5.00;4.75;;;;;22.27;48.73;101385.66;5076233;28;45580;-76
2021/07/08 11:33:32;;;;;;;;;5.50;5.25;;;;;22.30;48.19;101388.81;5076015;28;46472;-77
2021/07/08 11:36:01;;;;;;;;;4.50;4.50;;;;;22.30;48.13;101383.47;5075989;28;45897;-77
2021/07/08 11:41:50;;;;;;;;;5.00;4.75;;;;;22.39;47.76;101378.97;5075175;28;45632;-77
2021/07/08 11:44:19;;;;;;;;;7.00;5.25;;;;;22.41;48.47;101376.97;5073571;28;45585;-76
2021/07/08 11:46:46;;;;;;;;;5.00;3.25;;;;;22.50;47.94;101381.31;5074792;28;47193;-74
2021/07/08 11:49:12;;;;;;;;;5.25;4.00;;;;;22.56;48.27;101383.31;5057011;28;45792;-76
2021/07/08 11:51:37;;;;;;;;;5.00;4.00;;;;;22.62;47.67;101371.94;5074663;28;45659;-74
2021/07/08 11:57:26;;;;;;;;;4.25;4.00;;;;;22.76;47.15;101378.47;5075524;28;45702;-76
2021/07/08 11:59:52;;;;;;;;;3.00;3.00;;;;;22.77;47.43;101364.97;5075878;28;45496;-77
2021/07/08 12:02:35;;;;;;;;;4.75;4.75;;;;;22.80;47.21;101366.44;5074846;28;45592;-77
2021/07/08 12:05:14;;;;;;;;;3.00;3.00;;;;;22.92;47.09;101378.47;5073890;28;45627;-75
2021/07/08 12:07:42;;;;;;;;;3.75;3.75;;;;;22.96;46.44;101380.63;5072813;28;45988;-75
2021/07/08 12:10:10;;;;;;;;;3.00;1.25;;;;;23.00;46.14;101379.25;5074357;28;45663;-77
2021/07/08 12:12:35;;;;;;;;;4.50;4.00;;;;;23.03;46.52;101375.44;5073757;28;45736;-76
2021/07/08 12:15:01;;;;;;;;;5.00;5.00;;;;;23.05;46.11;101372.59;5074211;28;45616;-74
2021/07/08 12:17:28;;;;;;;;;5.00;5.00;;;;;23.01;46.25;101358.72;5073759;28;45978;-76
2021/07/08 12:20:04;;;;;;;;;4.75;4.00;;;;;23.08;46.79;101359.69;5074559;28;45621;-77
2021/07/08 12:22:30;;;;;;;;;4.00;4.00;;;;;23.19;46.75;101371.88;5074691;28;46074;-76
2021/07/08 12:24:55;;;;;;;;;4.75;4.00;;;;;23.24;46.41;101373.00;5074843;28;46250;-78
2021/07/08 12:27:20;;;;;;;;;5.25;5.00;;;;;23.19;45.83;101351.31;5074068;28;45726;-75
2021/07/08 12:29:46;;;;;;;;;4.00;3.50;;;;;23.34;46.29;101372.81;5074850;28;46036;-76
2021/07/08 12:32:17;;;;;;;;;4.75;4.75;;;;;23.15;46.38;101339.31;5074801;28;45643;-77
2021/07/08 12:34:57;;;;;;;;;5.00;4.25;;;;;23.42;45.64;101380.81;5074728;28;45502;-78
2021/07/08 12:44:11;;;;;;;;;4.00;3.00;;;;;23.50;44.77;101377.28;5074206;28;45468;-78
2021/07/08 12:46:37;;;;;;;;;4.25;4.25;;;;;23.52;44.43;101372.59;5074494;28;46446;-77
2021/07/08 12:49:04;;;;;;;;;4.25;4.00;;;;;23.63;44.53;101382.91;5074594;28;46109;-77
2021/07/08 12:51:29;;;;;;;;;3.00;3.00;;;;;23.66;43.98;101375.38;5074431;28;45773;-78
2021/07/08 12:53:55;;;;;;;;;3.00;3.00;;;;;23.70;44.00;101371.31;5074547;28;45752;-77